Trieste, Italy

7:41 PM CEST on August 22, 2014 (GMT +0200)
chiadino/rossetti | Change Station
CLOSE
Current Station
Personal Weather Station
Location: Trieste, Friuli-Venezia Giulia
Elevation: 135 ft
Nearby Weather Stations

Elev 135 ft 45.65 °N, 13.79 °E | Updated 53 seconds ago

Clear
Clear
75.3 °F
Feels Like 78 °F
N
4.0
Wind Variable Wind from West
Gusts 4.0 mph

Today
High -- | Low -- °F
--% Chance of Precip.
Yesterday
High -- | Low -- °F
Precip. -- in
6:13 AM 8:01 PM
Waning Crescent, 7% visible
Pressure 29.92 in
Visibility -9999.0 miles
Clouds
Heat Index 78 °F
Dew Point 56 °F
Humidity 51%
Rainfall 0.00 in
Snow Depth Not available.
UV Not available.
Pollen Not available.
Air Quality Not available.
Flu Activity Not available.
METAR LJPZ 221730Z 21002KT CAVOK 23/16 Q1013

More Conditions Fewer Conditions

Pressure 29.92 in
Visibility -9999.0 miles
Clouds
Heat Index 78 °F
Dew Point 56 °F
Humidity 51%
Rainfall 0.00 in
Snow Depth Not available.
UV Not available.
Pollen Not available.
Air Quality Not available.
Flu Activity Not available.
METAR LJPZ 221730Z 21002KT CAVOK 23/16 Q1013

More Conditions Fewer Conditions

10-Day Weather Forecast

Almanac

Astronomy

Aug. 22, 2014 Rise Set
Actual Time 6:13 AM CEST 8:01 PM CEST
Civil Twilight 5:41 AM CEST 8:32 PM CEST
Nautical Twilight 5:03 AM CEST 9:11 PM CEST
Astronomical Twilight 4:20 AM CEST 9:53 PM CEST
Moon 3:16 AM CEST 6:02 PM CEST
Length of Visible Light 14h 51m
Length of Day
13h 47m
Tomorrow will be 2m 58s shorter.
Waning Crescent, 7% of the Moon is Illuminated
Today
Waning Crescent
Aug 25
New
Sep 2
First Quarter
Sep 8
Full
Sep 15
Last Quarter

Today's Extremes

Country Highs Country Lows

Community

WunderPhotos

Upload Photos

1,746,206 photos uploaded!

WunderBlogs® & News

Nearby

Snow Depth

Not available.

Earthquake Activity

City Distance Mag. Time & Date
No recent earthquake activity has been reported nearby.
Minimum magnitude displayed is 2.5.

Coastal Water Temperatures

Place Temperature
No Stations Reporting

Nearby Weather Stations